Time;durP1;ratioP1;P1;durP2;ratioP2;P2;SDS_P1;SDS_P2;PMS_P1;PMS_P2;Temp;Humidity;BMP_temperature;BMP_pressure;BME280_temperature;BME280_humidity;BME280_pressure;Samples;Min_cycle;Max_cycle;Signal;HPM_P1;HPM_P2
2021/01/14 00:00:44;;;;;;;1999.90;999.90;;;;;;;-3.05;93.60;99472.52;1805541;78;21095;-69
2021/01/14 00:03:12;;;;;;;1999.90;999.90;;;;;;;-3.07;93.53;99466.53;1810058;78;20997;-69
2021/01/14 00:05:40;;;;;;;1999.90;999.90;;;;;;;-3.08;93.62;99463.53;1808962;78;21068;-69
2021/01/14 00:08:09;;;;;;;1999.90;999.90;;;;;;;-3.06;93.80;99470.06;1804521;78;21096;-69
2021/01/14 00:10:37;;;;;;;1999.90;999.90;;;;;;;-3.08;93.71;99474.36;1808048;78;21436;-68
2021/01/14 00:13:08;;;;;;;1999.90;999.90;;;;;;;-3.13;92.88;99480.23;1798192;78;20961;-69
2021/01/14 00:15:37;;;;;;;1999.90;999.90;;;;;;;-3.17;93.03;99482.60;1804048;78;21598;-69
2021/01/14 00:18:05;;;;;;;1999.90;999.90;;;;;;;-3.20;92.72;99483.63;1813188;78;21096;-68
2021/01/14 00:20:33;;;;;;;1999.90;999.90;;;;;;;-3.21;92.80;99486.05;1813437;78;21535;-68
2021/01/14 00:23:01;;;;;;;1999.90;999.90;;;;;;;-3.21;93.08;99480.09;1802696;78;21567;-69
2021/01/14 00:25:29;;;;;;;1999.90;999.90;;;;;;;-3.19;93.16;99483.91;1802778;78;21131;-69
2021/01/14 00:27:57;;;;;;;1999.90;999.90;;;;;;;-3.20;93.17;99477.68;1805967;78;21146;-69
2021/01/14 00:30:28;;;;;;;1999.90;999.90;;;;;;;-3.21;93.00;99486.05;1813367;78;21099;-69
2021/01/14 00:33:00;;;;;;;1999.90;999.90;;;;;;;-3.22;93.03;99495.23;1818002;78;21131;-69
2021/01/14 00:35:29;;;;;;;1999.90;999.90;;;;;;;-3.25;92.92;99483.83;1807623;78;21354;-69
2021/01/14 00:37:56;;;;;;;1999.90;999.90;;;;;;;-3.28;92.45;99486.20;1816537;78;21008;-69
2021/01/14 00:40:29;;;;;;;1999.90;999.90;;;;;;;-3.33;92.14;99484.76;1807924;78;20977;-69
2021/01/14 00:43:04;;;;;;;1999.90;999.90;;;;;;;-3.40;91.91;99493.03;1817582;78;21516;-69
2021/01/14 00:45:32;;;;;;;1999.90;999.90;;;;;;;-3.45;91.59;99493.47;1815330;78;21088;-69
2021/01/14 00:48:00;;;;;;;1999.90;999.90;;;;;;;-3.51;91.41;99489.85;1810258;78;21196;-70
2021/01/14 00:50:29;;;;;;;1999.90;999.90;;;;;;;-3.50;91.54;99504.20;1813436;78;21008;-69
2021/01/14 00:52:57;;;;;;;1999.90;999.90;;;;;;;-3.52;91.49;99498.21;1795638;78;21016;-69
2021/01/14 00:55:25;;;;;;;1999.90;999.90;;;;;;;-3.52;91.53;99501.73;1807395;78;21127;-70
2021/01/14 00:57:53;;;;;;;1999.90;999.90;;;;;;;-3.53;91.58;99497.39;1813958;78;21080;-69
2021/01/14 01:00:22;;;;;;;1999.90;999.90;;;;;;;-3.54;91.53;99497.63;1812477;78;21582;-69
2021/01/14 01:02:52;;;;;;;1999.90;999.90;;;;;;;-3.55;91.46;99500.05;1812161;78;21092;-71
2021/01/14 01:05:20;;;;;;;1999.90;999.90;;;;;;;-3.57;91.45;99493.53;1810406;78;21000;-69
2021/01/14 01:07:53;;;;;;;1999.90;999.90;;;;;;;-3.55;91.78;99502.75;1798079;78;20969;-70
2021/01/14 01:10:21;;;;;;;1999.90;999.90;;;;;;;-3.54;91.96;99505.75;1809811;79;21092;-69
2021/01/14 01:12:53;;;;;;;1999.90;999.90;;;;;;;-3.55;91.57;99506.80;1791508;79;21367;-69
2021/01/14 01:15:21;;;;;;;1999.90;999.90;;;;;;;-3.59;91.25;99507.82;1798679;79;21108;-69
2021/01/14 01:17:49;;;;;;;1999.90;999.90;;;;;;;-3.61;91.37;99501.30;1800231;79;21099;-69
2021/01/14 01:20:17;;;;;;;1999.90;999.90;;;;;;;-3.59;91.55;99505.94;1811771;79;21577;-69
2021/01/14 01:22:44;;;;;;;1999.90;999.90;;;;;;;-3.59;91.36;99505.94;1800503;78;21056;-70
2021/01/14 01:25:13;;;;;;;1999.90;999.90;;;;;;;-3.59;91.66;99510.00;1803910;79;21381;-70
2021/01/14 01:27:41;;;;;;;1999.90;999.90;;;;;;;-3.59;91.33;99534.87;1804275;79;21112;-70
2021/01/14 01:30:10;;;;;;;1999.90;999.90;;;;;;;-3.66;90.85;99532.84;1805977;79;21127;-70
2021/01/14 01:32:39;;;;;;;1999.90;999.90;;;;;;;-3.74;90.43;99543.50;1814038;79;21143;-69
2021/01/14 01:35:08;;;;;;;1999.90;999.90;;;;;;;-3.83;89.80;99539.53;1810873;79;21111;-70
2021/01/14 01:37:36;;;;;;;1999.90;999.90;;;;;;;-3.90;89.87;99547.78;1808410;79;21569;-70
2021/01/14 01:40:06;;;;;;;1999.90;999.90;;;;;;;-3.96;89.63;99554.67;1799999;79;21147;-69
2021/01/14 01:42:33;;;;;;;1999.90;999.90;;;;;;;-4.06;89.73;99554.45;1802293;79;21562;-70
2021/01/14 01:45:02;;;;;;;1999.90;999.90;;;;;;;-4.14;89.28;99556.17;1805157;79;21127;-70
2021/01/14 01:47:37;;;;;;;1999.90;999.90;;;;;;;-4.19;89.65;99563.63;1805551;79;21107;-69
2021/01/14 01:50:06;;;;;;;1999.90;999.90;;;;;;;-4.22;89.55;99577.61;1808792;79;21367;-69
2021/01/14 01:52:34;;;;;;;1999.90;999.90;;;;;;;-4.24;89.48;99587.30;1798183;79;21111;-69
2021/01/14 01:55:03;;;;;;;1999.90;999.90;;;;;;;-4.26;89.69;99594.83;1804263;79;21135;-69
2021/01/14 01:57:32;;;;;;;1999.90;999.90;;;;;;;-4.27;89.94;99603.16;1802422;79;21111;-69
2021/01/14 01:59:59;;;;;;;1999.90;999.90;;;;;;;-4.31;89.86;99600.64;1808424;79;21123;-69
2021/01/14 02:02:28;;;;;;;1999.90;999.90;;;;;;;-4.34;90.19;99605.98;1808920;79;21356;-69
2021/01/14 02:04:57;;;;;;;1999.90;999.90;;;;;;;-4.33;90.36;99611.68;1801912;79;21149;-69
2021/01/14 02:07:42;;;;;;;1999.90;999.90;;;;;;;-4.36;90.37;99608.09;1807818;77;21060;-69
2021/01/14 02:10:15;;;;;;;1999.90;999.90;;;;;;;-4.38;90.35;99612.91;1806289;79;21106;-69
2021/01/14 02:13:21;;;;;;;1999.90;999.90;;;;;;;-4.38;90.52;99611.56;1799178;79;21091;-69
2021/01/14 02:15:48;;;;;;;1999.90;999.90;;;;;;;-4.35;90.51;99611.62;1803730;79;22335;-69
2021/01/14 02:18:20;;;;;;;1999.90;999.90;;;;;;;-4.38;90.26;99602.64;1801799;79;21574;-71
2021/01/14 02:20:50;;;;;;;1999.90;999.90;;;;;;;-4.38;90.28;99602.64;1778539;79;21415;-70
2021/01/14 02:23:36;;;;;;;1999.90;999.90;;;;;;;-4.37;90.29;99600.23;1802982;79;21641;-71
2021/01/14 02:26:21;;;;;;;1999.90;999.90;;;;;;;-4.36;90.23;99593.23;1807156;79;21087;-69
2021/01/14 02:28:49;;;;;;;1999.90;999.90;;;;;;;-4.39;90.06;99601.81;1813053;79;21189;-69
2021/01/14 02:31:17;;;;;;;1999.90;999.90;;;;;;;-4.43;89.78;99603.34;1774114;79;21223;-70
2021/01/14 02:33:51;;;;;;;1999.90;999.90;;;;;;;-4.44;89.59;99607.63;1814726;79;21115;-69
2021/01/14 02:36:20;;;;;;;1999.90;999.90;;;;;;;-4.41;89.86;99604.45;1803909;79;21228;-69
2021/01/14 02:38:48;;;;;;;1999.90;999.90;;;;;;;-4.39;89.70;99607.75;1811793;79;21114;-69
2021/01/14 02:41:16;;;;;;;1999.90;999.90;;;;;;;-4.38;89.68;99599.94;1805873;79;22236;-69
2021/01/14 02:43:44;;;;;;;1999.90;999.90;;;;;;;-4.35;89.86;99596.77;1810514;79;21304;-69
2021/01/14 02:46:12;;;;;;;1999.90;999.90;;;;;;;-4.34;89.29;99598.41;1804754;79;21115;-69
2021/01/14 02:49:02;;;;;;;1999.90;999.90;;;;;;;-4.38;88.52;99595.36;1809808;79;21118;-69
2021/01/14 02:51:44;;;;;;;1999.90;999.90;;;;;;;-4.42;88.31;99596.06;1809120;79;21227;-69
2021/01/14 02:54:12;;;;;;;1999.90;999.90;;;;;;;-4.44;88.37;99596.82;1801352;79;21204;-70
2021/01/14 02:56:40;;;;;;;1999.90;999.90;;;;;;;-4.46;88.43;99608.39;1804476;79;21099;-70
2021/01/14 02:59:12;;;;;;;1999.90;999.90;;;;;;;-4.47;88.20;99604.04;1802561;79;21127;-70
2021/01/14 03:01:40;;;;;;;1999.90;999.90;;;;;;;-4.48;88.33;99614.02;1807593;79;21079;-70
2021/01/14 03:04:10;;;;;;;1999.90;999.90;;;;;;;-4.48;88.29;99614.02;1802963;79;21099;-70
2021/01/14 03:06:39;;;;;;;1999.90;999.90;;;;;;;-4.48;88.43;99614.55;1807003;79;22234;-70
2021/01/14 03:09:07;;;;;;;1999.90;999.90;;;;;;;-4.46;88.65;99619.19;1803758;79;21571;-70
2021/01/14 03:11:35;;;;;;;1999.90;999.90;;;;;;;-4.45;88.87;99627.58;1809583;79;20921;-70
2021/01/14 03:14:03;;;;;;;1999.90;999.90;;;;;;;-4.45;89.04;99635.16;1807314;79;20948;-70
2021/01/14 03:16:39;;;;;;;1999.90;999.90;;;;;;;-4.44;88.98;99641.38;1809179;79;21087;-70
2021/01/14 03:19:07;;;;;;;1999.90;999.90;;;;;;;-4.42;89.12;99644.14;1804261;79;21350;-70
2021/01/14 03:21:35;;;;;;;1999.90;999.90;;;;;;;-4.40;88.88;99654.19;1814625;79;21230;-70
2021/01/14 03:24:03;;;;;;;1999.90;999.90;;;;;;;-4.41;88.92;99655.25;1813114;79;21131;-70
2021/01/14 03:26:34;;;;;;;1999.90;999.90;;;;;;;-4.39;89.02;99650.43;1807413;79;21091;-70
2021/01/14 03:29:02;;;;;;;1999.90;999.90;;;;;;;-4.36;88.93;99645.91;1779963;79;21072;-69
2021/01/14 03:31:30;;;;;;;1999.90;999.90;;;;;;;-4.35;88.95;99646.21;1807142;79;21351;-70
2021/01/14 03:33:58;;;;;;;1999.90;999.90;;;;;;;-4.33;88.88;99654.08;1808863;79;21103;-69
2021/01/14 03:36:32;;;;;;;1999.90;999.90;;;;;;;-4.32;88.87;99657.90;1811177;79;21531;-70
2021/01/14 03:38:55;;;;;;;1999.90;999.90;;;;;;;-4.31;88.87;99661.42;1800507;79;20997;-70
2021/01/14 03:41:23;;;;;;;1999.90;999.90;;;;;;;-4.32;88.96;99660.59;1806991;79;21084;-69
2021/01/14 03:43:51;;;;;;;1999.90;999.90;;;;;;;-4.30;88.92;99665.77;1812297;79;21362;-69
2021/01/14 03:46:22;;;;;;;1999.90;999.90;;;;;;;-4.29;88.93;99677.69;1806143;79;21203;-70
2021/01/14 03:48:50;;;;;;;1999.90;999.90;;;;;;;-4.28;88.92;99671.23;1805874;79;21438;-69
2021/01/14 03:51:22;;;;;;;1999.90;999.90;;;;;;;-4.25;89.07;99682.92;1812648;79;21175;-69
2021/01/14 03:53:51;;;;;;;1999.90;999.90;;;;;;;-4.24;89.01;99687.27;1811522;79;21376;-69
2021/01/14 03:56:19;;;;;;;1999.90;999.90;;;;;;;-4.21;89.00;99683.28;1796958;78;22103;-69
2021/01/14 03:58:47;;;;;;;1999.90;999.90;;;;;;;-4.22;88.71;99685.16;1803942;79;20969;-69
2021/01/14 04:05:15;;;;;;;1999.90;999.90;;;;;;;-4.15;88.40;99682.88;1798929;79;28337;-69
2021/01/14 04:07:43;;;;;;;1999.90;999.90;;;;;;;-4.23;88.17;99682.16;1768323;80;20950;-68
2021/01/14 04:10:11;;;;;;;1999.90;999.90;;;;;;;-4.24;88.41;99684.57;1752256;81;21310;-68
2021/01/14 04:12:39;;;;;;;1999.90;999.90;;;;;;;-4.21;88.50;99684.62;1760060;81;20970;-69
2021/01/14 04:15:08;;;;;;;1999.90;999.90;;;;;;;-4.23;88.05;99690.80;1754259;80;20973;-68
2021/01/14 04:17:36;;;;;;;1999.90;999.90;;;;;;;-4.25;88.06;99700.48;1751385;81;21029;-71
2021/01/14 04:20:05;;;;;;;1999.90;999.90;;;;;;;-4.27;88.23;99716.63;1770078;81;20989;-70
2021/01/14 04:22:33;;;;;;;1999.90;999.90;;;;;;;-4.27;88.19;99717.98;1746454;81;21364;-71
2021/01/14 04:25:04;;;;;;;1999.90;999.90;;;;;;;-4.26;88.02;99720.98;1744027;81;21005;-70
2021/01/14 04:27:32;;;;;;;1999.90;999.90;;;;;;;-4.26;88.10;99708.83;1757864;79;21008;-68
2021/01/14 04:30:03;;;;;;;1999.90;999.90;;;;;;;-4.26;88.01;99711.00;1762941;81;20988;-67
2021/01/14 04:32:31;;;;;;;1999.90;999.90;;;;;;;-4.26;88.12;99713.70;1766795;79;20985;-68
2021/01/14 04:35:00;;;;;;;1999.90;999.90;;;;;;;-4.25;88.29;99714.00;1765450;79;21326;-68
2021/01/14 04:37:29;;;;;;;1999.90;999.90;;;;;;;-4.22;88.64;99714.88;1767562;80;21543;-68
2021/01/14 04:39:57;;;;;;;1999.90;999.90;;;;;;;-4.22;88.62;99718.94;1758565;81;21052;-68
2021/01/14 04:42:28;;;;;;;1999.90;999.90;;;;;;;-4.18;88.66;99717.12;1763287;81;21524;-68
2021/01/14 04:44:56;;;;;;;1999.90;999.90;;;;;;;-4.19;88.60;99708.72;1759849;81;20973;-68
2021/01/14 04:47:24;;;;;;;1999.90;999.90;;;;;;;-4.19;88.68;99706.84;1746584;81;21368;-67
2021/01/14 04:49:57;;;;;;;1999.90;999.90;;;;;;;-4.17;88.62;99707.95;1731201;81;20993;-68
2021/01/14 04:52:26;;;;;;;;;;;;;;;-4.15;88.67;99708.55;1768609;81;21544;-67
2021/01/14 04:54:54;;;;;;;1999.90;999.90;;;;;;;-4.13;88.67;99716.72;1769666;81;20179;-67
2021/01/14 04:57:22;;;;;;;1999.90;999.90;;;;;;;-4.14;88.37;99730.45;1731500;81;20966;-68
2021/01/14 04:59:53;;;;;;;1999.90;999.90;;;;;;;-4.16;88.62;99729.34;1734631;80;22289;-68
2021/01/14 05:02:23;;;;;;;1999.90;999.90;;;;;;;-4.14;88.68;99730.45;1758861;79;21563;-68
2021/01/14 05:04:52;;;;;;;1999.90;999.90;;;;;;;-4.14;88.80;99733.98;1750110;81;21120;-68
2021/01/14 05:07:32;;;;;;;1999.90;999.90;;;;;;;-4.11;88.86;99727.29;1749739;81;20966;-68
2021/01/14 05:10:04;;;;;;;1999.90;999.90;;;;;;;-4.10;88.91;99728.41;1736276;81;21128;-68
2021/01/14 05:12:33;;;;;;;1999.90;999.90;;;;;;;-4.08;89.10;99735.75;1754127;81;21445;-68
2021/01/14 05:15:01;;;;;;;1999.90;999.90;;;;;;;-4.09;88.94;99743.56;1727798;81;21136;-67
2021/01/14 05:17:29;;;;;;;1999.90;999.90;;;;;;;-4.07;88.95;99746.03;1751426;81;21289;-68
2021/01/14 05:19:57;;;;;;;1999.90;999.90;;;;;;;-4.07;89.00;99740.10;1750621;81;21556;-68
2021/01/14 05:22:25;;;;;;;1999.90;999.90;;;;;;;-4.06;88.99;99745.80;1750498;81;20978;-67
2021/01/14 05:25:09;;;;;;;1999.90;999.90;;;;;;;-4.05;89.08;99744.75;1746989;81;22275;-68
2021/01/14 05:27:38;;;;;;;1999.90;999.90;;;;;;;-4.03;89.21;99739.11;1760574;81;21132;-68
2021/01/14 05:30:11;;;;;;;1999.90;999.90;;;;;;;-3.99;89.33;99744.34;1750854;80;20962;-67
2021/01/14 05:32:41;;;;;;;1999.90;999.90;;;;;;;-3.97;89.27;99746.28;1755242;81;21560;-68
2021/01/14 05:35:11;;;;;;;1999.90;999.90;;;;;;;-3.94;89.42;99752.58;1749051;81;20966;-70
2021/01/14 05:37:42;;;;;;;1999.90;999.90;;;;;;;-3.92;89.17;99752.64;1757150;81;22170;-70
2021/01/14 05:40:16;;;;;;;1999.90;999.90;;;;;;;-3.92;89.00;99750.46;1748818;81;21194;-70
2021/01/14 05:42:43;;;;;;;1999.90;999.90;;;;;;;-3.93;89.01;99759.09;1753486;81;21531;-70
2021/01/14 05:45:24;;;;;;;1999.90;999.90;;;;;;;-3.93;89.07;99768.56;1704473;81;21128;-68
2021/01/14 05:47:58;;;;;;;1999.90;999.90;;;;;;;-3.92;89.22;99765.33;1747644;81;20973;-68
2021/01/14 05:50:44;;;;;;;1999.90;999.90;;;;;;;-3.88;89.18;99763.80;1862991;76;28320;-67
2021/01/14 05:53:17;;;;;;;1999.90;999.90;;;;;;;-3.93;89.29;99756.39;1826727;77;20941;-68
2021/01/14 05:55:52;;;;;;;1999.90;999.90;;;;;;;-3.85;89.49;99751.17;1863790;76;28788;-69
2021/01/14 05:58:20;;;;;;;1999.90;999.90;;;;;;;-3.87;89.63;99751.11;1823169;77;20937;-69
2021/01/14 06:00:49;;;;;;;1999.90;999.90;;;;;;;-3.85;89.75;99757.93;1827442;77;21390;-70
2021/01/14 06:03:30;;;;;;;1999.90;999.90;;;;;;;-3.83;89.74;99764.45;1827293;77;21692;-70
2021/01/14 06:08:34;;;;;;;1999.90;999.90;;;;;;;-3.77;89.97;99764.34;1839147;76;28494;-68
2021/01/14 06:11:02;;;;;;;1999.90;999.90;;;;;;;-3.73;89.78;99757.94;1826645;77;20980;-67
2021/01/14 06:13:40;;;;;;;1999.90;999.90;;;;;;;-3.71;89.56;99762.05;1790400;77;21803;-68
2021/01/14 06:16:08;;;;;;;1999.90;999.90;;;;;;;-3.72;89.61;99767.16;1812469;77;21565;-68
2021/01/14 06:18:36;;;;;;;1999.90;999.90;;;;;;;-3.73;89.67;99774.98;1822818;77;21612;-69
2021/01/14 06:21:05;;;;;;;1999.90;999.90;;;;;;;-3.74;89.64;99775.22;1814914;77;21127;-70
2021/01/14 06:23:48;;;;;;;1999.90;999.90;;;;;;;-3.73;89.71;99780.92;1818131;77;20929;-69
2021/01/14 06:26:27;;;;;;;1999.90;999.90;;;;;;;-3.74;89.82;99777.92;1814950;77;21746;-69
2021/01/14 06:28:55;;;;;;;1999.90;999.90;;;;;;;-3.74;89.47;99782.80;1808174;77;20961;-69
2021/01/14 06:31:26;;;;;;;1999.90;999.90;;;;;;;-3.77;89.21;99781.92;1786081;77;20960;-69
2021/01/14 06:33:55;;;;;;;1999.90;999.90;;;;;;;-3.78;89.33;99778.92;1812469;77;21111;-70
2021/01/14 06:36:29;;;;;;;1999.90;999.90;;;;;;;-3.77;89.44;99764.34;1820500;77;20949;-69
2021/01/14 06:39:13;;;;;;;1999.90;999.90;;;;;;;-3.69;89.59;99763.99;1831762;76;28231;-68
2021/01/14 06:41:42;;;;;;;1999.90;999.90;;;;;;;-3.69;89.74;99765.88;1790702;79;21080;-69
2021/01/14 06:44:12;;;;;;;1999.90;999.90;;;;;;;-3.66;89.74;99768.93;1776204;79;21371;-69
2021/01/14 06:46:41;;;;;;;1999.90;999.90;;;;;;;-3.64;89.63;99776.28;1778029;79;20933;-68
2021/01/14 06:49:15;;;;;;;1999.90;999.90;;;;;;;-3.65;89.47;99778.69;1779481;79;20983;-68
2021/01/14 06:51:53;;;;;;;1999.90;999.90;;;;;;;-3.63;89.61;99777.93;1775686;78;21513;-69
2021/01/14 06:54:21;;;;;;;1999.90;999.90;;;;;;;-3.59;89.74;99780.98;1780187;79;21079;-69
2021/01/14 06:56:59;;;;;;;1999.90;999.90;;;;;;;-3.55;89.83;99786.75;1762587;79;21393;-69
2021/01/14 06:59:26;;;;;;;1999.90;999.90;;;;;;;-3.52;89.87;99788.98;1782553;79;21481;-68
2021/01/14 07:02:18;;;;;;;1999.90;999.90;;;;;;;-3.53;89.50;99787.34;1768829;79;20988;-68
2021/01/14 07:04:53;;;;;;;1999.90;999.90;;;;;;;-3.54;89.47;99781.10;1788116;79;21502;-69
2021/01/14 07:07:36;;;;;;;1999.90;999.90;;;;;;;-3.54;89.20;99781.10;1785503;78;20939;-68
2021/01/14 07:10:08;;;;;;;1999.90;999.90;;;;;;;-3.56;88.88;99785.92;1774352;79;22068;-69
2021/01/14 07:12:38;;;;;;;1999.90;999.90;;;;;;;-3.59;88.47;99783.16;1781245;79;20996;-68
2021/01/14 07:15:11;;;;;;;1999.90;999.90;;;;;;;-3.61;88.67;99779.87;1781483;79;21020;-68
2021/01/14 07:17:42;;;;;;;1999.90;999.90;;;;;;;-3.60;88.95;99772.58;1782096;79;21519;-69
2021/01/14 07:20:14;;;;;;;1999.90;999.90;;;;;;;-3.59;88.99;99769.64;1787893;79;21137;-69
2021/01/14 07:22:58;;;;;;;1999.90;999.90;;;;;;;-3.55;89.08;99775.93;1777199;79;22059;-69
2021/01/14 07:25:26;;;;;;;1999.90;999.90;;;;;;;-3.53;89.17;99781.93;1772527;79;21523;-69
2021/01/14 07:27:54;;;;;;;1999.90;999.90;;;;;;;-3.50;89.38;99793.63;1786630;79;21822;-69
2021/01/14 07:30:24;;;;;;;1999.90;999.90;;;;;;;-3.47;89.25;99795.33;1770069;79;20984;-69
2021/01/14 07:33:04;;;;;;;1999.90;999.90;;;;;;;-3.44;89.33;99792.16;1751844;79;21138;-69
2021/01/14 07:35:45;;;;;;;1999.90;999.90;;;;;;;-3.43;89.01;99791.09;1769255;79;22489;-70
2021/01/14 07:38:15;;;;;;;1999.90;999.90;;;;;;;-3.42;88.99;99795.98;1779835;78;21008;-69
2021/01/14 07:40:45;;;;;;;1999.90;999.90;;;;;;;-3.44;88.83;99803.51;1778972;78;20978;-69
2021/01/14 07:43:14;;;;;;;1999.90;999.90;;;;;;;-3.44;88.89;99823.80;1785715;78;21147;-69
2021/01/14 07:45:44;;;;;;;1999.90;999.90;;;;;;;-3.42;89.02;99825.73;1788975;78;21077;-69
2021/01/14 07:48:23;;;;;;;1999.90;999.90;;;;;;;-3.39;89.11;99827.45;1777977;78;21365;-70
2021/01/14 07:53:31;;;;;;;1999.90;999.90;;;;;;;-3.28;89.18;99837.45;1828375;76;28596;-68
2021/01/14 07:56:24;;;;;;;1999.90;999.90;;;;;;;-3.28;88.92;99840.16;1798184;79;20953;-68
2021/01/14 07:58:59;;;;;;;1999.90;999.90;;;;;;;-3.19;89.01;99835.20;1872930;75;28206;-68
2021/01/14 08:01:27;;;;;;;1999.90;999.90;;;;;;;-3.23;88.88;99831.33;1806569;77;21060;-70
2021/01/14 08:03:55;;;;;;;1999.90;999.90;;;;;;;-3.21;88.85;99840.56;1820662;77;21380;-70
2021/01/14 08:06:34;;;;;;;1999.90;999.90;;;;;;;-3.22;88.75;99849.73;1839852;75;20966;-70
2021/01/14 08:09:10;;;;;;;1999.90;999.90;;;;;;;-3.19;88.83;99858.74;1840337;75;21537;-68
2021/01/14 08:11:44;;;;;;;1999.90;999.90;;;;;;;-3.17;88.91;99857.45;1842540;75;20964;-68
2021/01/14 08:14:18;;;;;;;1999.90;999.90;;;;;;;-3.14;88.88;99856.97;1847358;75;21512;-68
2021/01/14 08:16:55;;;;;;;1999.90;999.90;;;;;;;-3.08;88.94;99862.80;1850429;75;21416;-68
2021/01/14 08:19:36;;;;;;;1999.90;999.90;;;;;;;-3.04;88.91;99859.91;1851886;75;20979;-68
2021/01/14 08:22:13;;;;;;;1999.90;999.90;;;;;;;-2.99;89.00;99870.03;1852262;75;21514;-68
2021/01/14 08:24:54;;;;;;;1999.90;999.90;;;;;;;-2.98;88.74;99869.80;1841941;75;20972;-70
2021/01/14 08:27:36;;;;;;;1999.90;999.90;;;;;;;-2.97;88.46;99862.50;1850783;75;21028;-70
2021/01/14 08:30:15;;;;;;;1999.90;999.90;;;;;;;-2.92;88.72;99858.02;1881710;75;28346;-70
2021/01/14 08:33:04;;;;;;;1999.90;999.90;;;;;;;-2.93;88.83;99858.25;1825484;77;20968;-70
2021/01/14 08:35:35;;;;;;;1999.90;999.90;;;;;;;-2.90;88.80;99868.61;1826200;78;22217;-70
2021/01/14 08:38:15;;;;;;;1999.90;999.90;;;;;;;-2.93;88.51;99875.32;1816895;78;21186;-70
2021/01/14 08:40:43;;;;;;;1999.90;999.90;;;;;;;-2.92;88.59;99872.91;1786633;80;21124;-70
2021/01/14 08:43:18;;;;;;;1999.90;999.90;;;;;;;-2.90;88.62;99869.96;1774860;80;20971;-70
2021/01/14 08:45:56;;;;;;;1999.90;999.90;;;;;;;-2.87;88.47;99873.55;1778024;80;20984;-70
2021/01/14 08:48:29;;;;;;;1999.90;999.90;;;;;;;-2.85;88.28;99883.61;1775955;80;21564;-70
2021/01/14 08:51:01;;;;;;;1999.90;999.90;;;;;;;-2.85;88.22;99883.61;1770091;80;21005;-70
2021/01/14 08:53:35;;;;;;;1999.90;999.90;;;;;;;-2.84;88.27;99881.20;1772134;80;21004;-70
2021/01/14 08:56:09;;;;;;;1999.90;999.90;;;;;;;-2.84;88.25;99882.55;1773975;80;20985;-70
2021/01/14 08:58:46;;;;;;;1999.90;999.90;;;;;;;-2.86;88.16;99874.38;1769186;80;20938;-70
2021/01/14 09:01:20;;;;;;;1999.90;999.90;;;;;;;-2.85;88.00;99874.67;1776964;80;21210;-70
2021/01/14 09:03:49;;;;;;;1999.90;999.90;;;;;;;-2.82;88.11;99872.84;1774709;80;21120;-70
2021/01/14 09:09:15;;;;;;;1999.90;999.90;;;;;;;-2.68;88.32;99867.45;1821927;76;28183;-69
2021/01/14 09:11:43;;;;;;;1999.90;999.90;;;;;;;-2.71;87.88;99870.64;1790343;79;20916;-70
2021/01/14 09:14:15;;;;;;;1999.90;999.90;;;;;;;-2.71;87.70;99871.99;1778774;80;21204;-70
2021/01/14 09:16:45;;;;;;;1999.90;999.90;;;;;;;-2.67;87.93;99873.98;1774267;79;21111;-70
2021/01/14 09:21:58;;;;;;;1999.90;999.90;;;;;;;-2.53;88.13;99876.43;1818933;76;28288;-69
2021/01/14 09:24:26;;;;;;;1999.90;999.90;;;;;;;-2.58;87.96;99875.80;1801595;79;20961;-69
2021/01/14 09:26:54;;;;;;;1999.90;999.90;;;;;;;-2.60;87.48;99871.15;1807363;77;21357;-69
2021/01/14 09:29:30;;;;;;;1999.90;999.90;;;;;;;-2.58;87.66;99869.02;1768780;79;21130;-69
2021/01/14 09:31:58;;;;;;;1999.90;999.90;;;;;;;-2.58;87.47;99870.91;1802633;79;21020;-69
2021/01/14 09:34:26;;;;;;;1999.90;999.90;;;;;;;-2.61;87.67;99866.26;1796481;79;21538;-69
2021/01/14 09:36:53;;;;;;;1999.90;999.90;;;;;;;-2.60;87.82;99866.55;1806559;79;21506;-69
2021/01/14 09:39:21;;;;;;;1999.90;999.90;;;;;;;-2.60;87.81;99854.89;1810193;79;21372;-69
2021/01/14 09:41:53;;;;;;;1999.90;999.90;;;;;;;-2.58;87.84;99849.23;1804061;79;21075;-69
2021/01/14 09:44:21;;;;;;;1999.90;999.90;;;;;;;-2.54;88.00;99851.22;1774971;79;21593;-69
2021/01/14 09:46:49;;;;;;;1999.90;999.90;;;;;;;-2.48;88.17;99848.91;1799957;79;21123;-69
2021/01/14 09:49:21;;;;;;;1999.90;999.90;;;;;;;-2.44;88.05;99841.13;1779073;79;20949;-69
2021/01/14 09:51:51;;;;;;;1999.90;999.90;;;;;;;-2.41;87.98;99847.41;1797752;79;21203;-69
2021/01/14 09:54:20;;;;;;;1999.90;999.90;;;;;;;-2.39;87.77;99846.11;1809243;79;20942;-69
2021/01/14 09:56:55;;;;;;;1999.90;999.90;;;;;;;-2.39;87.07;99843.93;1757956;79;21000;-69
2021/01/14 09:59:42;;;;;;;1999.90;999.90;;;;;;;-2.42;87.11;99835.75;1804670;79;20929;-69
2021/01/14 10:02:29;;;;;;;1999.90;999.90;;;;;;;-2.43;86.95;99831.92;1792658;79;21662;-69
2021/01/14 10:05:03;;;;;;;1999.90;999.90;;;;;;;-2.48;86.74;99831.30;1800078;79;22236;-71
2021/01/14 10:07:34;;;;;;;1999.90;999.90;;;;;;;-2.48;86.84;99831.83;1799049;79;20988;-70
2021/01/14 10:10:05;;;;;;;1999.90;999.90;;;;;;;-2.48;86.49;99829.12;1773117;79;21622;-70
2021/01/14 10:12:33;;;;;;;1999.90;999.90;;;;;;;-2.47;86.54;99820.75;1763837;79;21101;-70
2021/01/14 10:15:10;;;;;;;1999.90;999.90;;;;;;;-2.44;86.18;99815.38;1800644;79;21119;-70
2021/01/14 10:17:39;;;;;;;1999.90;999.90;;;;;;;-2.41;85.90;99818.42;1795259;79;21349;-69
2021/01/14 10:20:12;;;;;;;1999.90;999.90;;;;;;;-2.41;85.52;99819.78;1802347;78;21508;-70
2021/01/14 10:22:52;;;;;;;1999.90;999.90;;;;;;;-2.41;85.54;99817.07;1805596;78;21007;-69
2021/01/14 10:25:21;;;;;;;1999.90;999.90;;;;;;;-2.42;85.48;99816.78;1815671;78;21494;-69
2021/01/14 10:28:03;;;;;;;1999.90;999.90;;;;;;;-2.41;85.98;99811.66;1813551;78;21067;-69
2021/01/14 10:30:31;;;;;;;1999.90;999.90;;;;;;;-2.38;85.60;99808.99;1824408;78;22032;-70
2021/01/14 10:33:03;;;;;;;1999.90;999.90;;;;;;;-2.37;85.87;99810.11;1809079;78;21039;-69
2021/01/14 10:35:33;;;;;;;1999.90;999.90;;;;;;;-2.38;85.98;99804.39;1816952;78;21118;-69
2021/01/14 10:38:12;;;;;;;1999.90;999.90;;;;;;;-2.37;85.56;99807.92;1816943;78;21154;-69
2021/01/14 10:40:43;;;;;;;1999.90;999.90;;;;;;;-2.39;85.22;99811.41;1811534;78;21110;-69
2021/01/14 10:43:17;;;;;;;1999.90;999.90;;;;;;;-2.53;84.93;99808.16;1824553;78;21338;-68
2021/01/14 10:45:45;;;;;;;1999.90;999.90;;;;;;;-2.53;85.56;99804.10;1813115;78;20925;-69
2021/01/14 10:48:15;;;;;;;1999.90;999.90;;;;;;;-2.53;85.50;99811.41;1776194;78;20984;-69
2021/01/14 10:50:48;;;;;;;1999.90;999.90;;;;;;;-2.50;85.67;99804.97;1808437;78;21138;-70
2021/01/14 10:53:33;;;;;;;1999.90;999.90;;;;;;;-2.44;85.90;99808.07;1828015;78;20992;-70
2021/01/14 10:56:09;;;;;;;1999.90;999.90;;;;;;;-2.40;85.67;99810.59;1808065;77;21596;-69
2021/01/14 10:58:40;;;;;;;1999.90;999.90;;;;;;;-2.37;85.62;99810.11;1811675;78;20953;-69
2021/01/14 11:01:19;;;;;;;1999.90;999.90;;;;;;;-2.36;85.60;99814.45;1810125;78;21094;-69
2021/01/14 11:03:48;;;;;;;1999.90;999.90;;;;;;;-2.36;85.55;99814.45;1811211;78;20948;-69
2021/01/14 11:06:30;;;;;;;1999.90;999.90;;;;;;;-2.36;85.52;99811.75;1813490;78;21130;-70
2021/01/14 11:09:06;;;;;;;1999.90;999.90;;;;;;;-2.34;85.34;99804.73;1811205;78;21375;-68
2021/01/14 11:11:35;;;;;;;1999.90;999.90;;;;;;;-2.31;85.29;99806.95;1813515;78;21028;-68
2021/01/14 11:14:04;;;;;;;1999.90;999.90;;;;;;;-2.28;85.12;99805.12;1810710;78;21011;-68
2021/01/14 11:16:33;;;;;;;1999.90;999.90;;;;;;;-2.29;84.77;99802.11;1813271;78;21233;-68
2021/01/14 11:19:03;;;;;;;1999.90;999.90;;;;;;;-2.32;84.92;99801.25;1816692;78;21106;-68
2021/01/14 11:21:33;;;;;;;1999.90;999.90;;;;;;;-2.33;84.71;99803.13;1807789;78;22259;-68
2021/01/14 11:24:02;;;;;;;1999.90;999.90;;;;;;;-2.30;84.78;99799.94;1809508;78;21154;-68
2021/01/14 11:26:29;;;;;;;1999.90;999.90;;;;;;;-2.30;84.54;99805.89;1810314;78;21174;-68
2021/01/14 11:28:58;;;;;;;1999.90;999.90;;;;;;;-2.29;84.27;99805.65;1814518;77;21146;-68